sensor_id;sensor_type;location;lat;lon;timestamp;pressure;altitude;pressure_sealevel;temperature;humidity
69772;BME280;57046;45.988;18.664;2024-01-10T00:01:44;102399.75;;;1.37;67.48
69772;BME280;57046;45.988;18.664;2024-01-10T00:04:09;102394.00;;;1.34;68.18
69772;BME280;57046;45.988;18.664;2024-01-10T00:06:34;102393.03;;;1.28;68.25
69772;BME280;57046;45.988;18.664;2024-01-10T00:09:00;102400.22;;;1.21;68.57
69772;BME280;57046;45.988;18.664;2024-01-10T00:11:25;102395.31;;;1.18;68.87
69772;BME280;57046;45.988;18.664;2024-01-10T00:13:50;102391.00;;;1.17;68.79
69772;BME280;57046;45.988;18.664;2024-01-10T00:16:16;102393.06;;;1.15;69.23
69772;BME280;57046;45.988;18.664;2024-01-10T00:18:41;102388.16;;;1.12;69.43
69772;BME280;57046;45.988;18.664;2024-01-10T00:21:07;102392.66;;;1.12;69.30
69772;BME280;57046;45.988;18.664;2024-01-10T00:23:32;102393.28;;;1.07;69.23
69772;BME280;57046;45.988;18.664;2024-01-10T00:25:58;102387.78;;;1.02;69.52
69772;BME280;57046;45.988;18.664;2024-01-10T00:28:23;102390.66;;;1.00;69.58
69772;BME280;57046;45.988;18.664;2024-01-10T00:30:48;102402.53;;;0.98;69.96
69772;BME280;57046;45.988;18.664;2024-01-10T00:33:14;102408.88;;;0.97;70.09
69772;BME280;57046;45.988;18.664;2024-01-10T00:35:39;102403.78;;;0.82;70.92
69772;BME280;57046;45.988;18.664;2024-01-10T00:38:05;102396.44;;;0.78;71.09
69772;BME280;57046;45.988;18.664;2024-01-10T00:40:30;102405.63;;;0.75;71.62
69772;BME280;57046;45.988;18.664;2024-01-10T00:42:55;102405.19;;;0.78;71.32
69772;BME280;57046;45.988;18.664;2024-01-10T00:45:20;102407.69;;;0.67;71.60
69772;BME280;57046;45.988;18.664;2024-01-10T00:47:48;102411.56;;;0.71;71.78
69772;BME280;57046;45.988;18.664;2024-01-10T00:50:14;102401.13;;;0.69;71.99
69772;BME280;57046;45.988;18.664;2024-01-10T00:52:39;102408.28;;;0.75;71.57
69772;BME280;57046;45.988;18.664;2024-01-10T00:55:05;102406.25;;;0.77;70.95
69772;BME280;57046;45.988;18.664;2024-01-10T00:57:31;102412.16;;;0.79;71.27
69772;BME280;57046;45.988;18.664;2024-01-10T00:59:57;102414.41;;;0.76;71.27
69772;BME280;57046;45.988;18.664;2024-01-10T01:02:23;102407.69;;;0.73;71.34
69772;BME280;57046;45.988;18.664;2024-01-10T01:04:48;102379.06;;;0.49;70.57
69772;BME280;57046;45.988;18.664;2024-01-10T01:07:14;102409.72;;;0.58;71.22
69772;BME280;57046;45.988;18.664;2024-01-10T01:09:40;102391.13;;;0.45;71.45
69772;BME280;57046;45.988;18.664;2024-01-10T01:12:06;102410.13;;;0.42;71.38
69772;BME280;57046;45.988;18.664;2024-01-10T01:14:31;102419.53;;;0.31;71.68
69772;BME280;57046;45.988;18.664;2024-01-10T01:16:57;102408.28;;;0.23;71.69
69772;BME280;57046;45.988;18.664;2024-01-10T01:19:23;102409.91;;;0.11;71.05
69772;BME280;57046;45.988;18.664;2024-01-10T01:21:49;102404.38;;;-0.01;70.56
69772;BME280;57046;45.988;18.664;2024-01-10T01:24:14;102406.59;;;-0.18;70.77
69772;BME280;57046;45.988;18.664;2024-01-10T01:26:40;102398.19;;;-0.28;71.06
69772;BME280;57046;45.988;18.664;2024-01-10T01:29:05;102405.34;;;-0.28;71.34
69772;BME280;57046;45.988;18.664;2024-01-10T01:31:31;102405.91;;;-0.39;71.90
69772;BME280;57046;45.988;18.664;2024-01-10T01:33:56;102409.78;;;-0.42;71.85
69772;BME280;57046;45.988;18.664;2024-01-10T01:36:22;102404.66;;;-0.43;71.65
69772;BME280;57046;45.988;18.664;2024-01-10T01:38:48;102406.47;;;-0.51;71.56
69772;BME280;57046;45.988;18.664;2024-01-10T01:41:14;102397.88;;;-0.59;71.89
69772;BME280;57046;45.988;18.664;2024-01-10T01:43:40;102398.69;;;-0.59;71.76
69772;BME280;57046;45.988;18.664;2024-01-10T01:46:06;102402.75;;;-0.63;72.03
69772;BME280;57046;45.988;18.664;2024-01-10T01:48:33;102404.78;;;-0.65;72.39
69772;BME280;57046;45.988;18.664;2024-01-10T01:51:05;102391.28;;;-0.70;72.42
69772;BME280;57046;45.988;18.664;2024-01-10T01:53:32;102400.31;;;-0.58;72.05
69772;BME280;57046;45.988;18.664;2024-01-10T01:56:00;102389.66;;;-0.64;71.48
69772;BME280;57046;45.988;18.664;2024-01-10T01:58:27;102402.53;;;-0.61;72.06
69772;BME280;57046;45.988;18.664;2024-01-10T02:00:52;102392.72;;;-0.67;72.19
69772;BME280;57046;45.988;18.664;2024-01-10T02:03:18;102403.31;;;-0.74;72.75
69772;BME280;57046;45.988;18.664;2024-01-10T02:05:44;102397.59;;;-0.71;72.48
69772;BME280;57046;45.988;18.664;2024-01-10T02:08:11;102394.75;;;-0.69;72.49
69772;BME280;57046;45.988;18.664;2024-01-10T02:10:36;102394.13;;;-0.71;72.78
69772;BME280;57046;45.988;18.664;2024-01-10T02:13:01;102386.16;;;-0.71;73.18
69772;BME280;57046;45.988;18.664;2024-01-10T02:15:27;102383.09;;;-0.75;72.87
69772;BME280;57046;45.988;18.664;2024-01-10T02:17:52;102383.44;;;-0.84;72.60
69772;BME280;57046;45.988;18.664;2024-01-10T02:20:18;102386.94;;;-0.84;72.56
69772;BME280;57046;45.988;18.664;2024-01-10T02:22:44;102381.00;;;-0.86;72.92
69772;BME280;57046;45.988;18.664;2024-01-10T02:25:10;102376.31;;;-0.84;72.83
69772;BME280;57046;45.988;18.664;2024-01-10T02:27:36;102381.88;;;-0.79;72.69
69772;BME280;57046;45.988;18.664;2024-01-10T02:30:03;102376.09;;;-0.89;72.41
69772;BME280;57046;45.988;18.664;2024-01-10T02:32:28;102383.16;;;-1.02;72.26
69772;BME280;57046;45.988;18.664;2024-01-10T02:34:54;102382.75;;;-1.06;72.22
69772;BME280;57046;45.988;18.664;2024-01-10T02:37:19;102377.56;;;-1.14;72.95
69772;BME280;57046;45.988;18.664;2024-01-10T02:39:44;102380.81;;;-1.19;73.32
69772;BME280;57046;45.988;18.664;2024-01-10T02:42:10;102385.88;;;-1.24;73.32
69772;BME280;57046;45.988;18.664;2024-01-10T02:44:35;102384.25;;;-1.25;73.08
69772;BME280;57046;45.988;18.664;2024-01-10T02:47:00;102382.59;;;-1.26;73.38
69772;BME280;57046;45.988;18.664;2024-01-10T02:49:26;102381.59;;;-1.25;72.79
69772;BME280;57046;45.988;18.664;2024-01-10T02:51:51;102377.81;;;-1.43;73.56
69772;BME280;57046;45.988;18.664;2024-01-10T02:54:16;102389.09;;;-1.28;73.48
69772;BME280;57046;45.988;18.664;2024-01-10T02:56:42;102372.19;;;-1.27;73.70
69772;BME280;57046;45.988;18.664;2024-01-10T02:59:07;102376.72;;;-1.21;73.36
69772;BME280;57046;45.988;18.664;2024-01-10T03:01:32;102378.78;;;-1.17;73.53
69772;BME280;57046;45.988;18.664;2024-01-10T03:03:57;102378.78;;;-1.17;73.35
69772;BME280;57046;45.988;18.664;2024-01-10T03:06:23;102383.50;;;-1.12;73.53
69772;BME280;57046;45.988;18.664;2024-01-10T03:08:48;102384.72;;;-1.15;72.63
69772;BME280;57046;45.988;18.664;2024-01-10T03:11:13;102382.66;;;-1.19;73.40
69772;BME280;57046;45.988;18.664;2024-01-10T03:13:39;102377.16;;;-1.18;73.81
69772;BME280;57046;45.988;18.664;2024-01-10T03:16:05;102383.75;;;-1.07;73.44
69772;BME280;57046;45.988;18.664;2024-01-10T03:18:30;102375.53;;;-1.12;73.92
69772;BME280;57046;45.988;18.664;2024-01-10T03:20:55;102382.69;;;-1.13;74.35
69772;BME280;57046;45.988;18.664;2024-01-10T03:23:21;102388.66;;;-1.04;73.96
69772;BME280;57046;45.988;18.664;2024-01-10T03:25:46;102389.50;;;-0.97;74.25
69772;BME280;57046;45.988;18.664;2024-01-10T03:28:15;102390.56;;;-0.91;73.64
69772;BME280;57046;45.988;18.664;2024-01-10T03:30:40;102377.28;;;-0.91;74.09
69772;BME280;57046;45.988;18.664;2024-01-10T03:33:06;102388.16;;;-0.86;74.13
69772;BME280;57046;45.988;18.664;2024-01-10T03:35:31;102381.41;;;-0.89;73.93
69772;BME280;57046;45.988;18.664;2024-01-10T03:37:56;102382.81;;;-0.93;74.10
69772;BME280;57046;45.988;18.664;2024-01-10T03:40:21;102370.13;;;-0.97;73.97
69772;BME280;57046;45.988;18.664;2024-01-10T03:42:47;102380.09;;;-1.06;73.70
69772;BME280;57046;45.988;18.664;2024-01-10T03:45:12;102382.69;;;-1.13;74.38
69772;BME280;57046;45.988;18.664;2024-01-10T03:47:37;102383.56;;;-1.06;74.29
69772;BME280;57046;45.988;18.664;2024-01-10T03:50:03;102371.06;;;-1.12;74.21
69772;BME280;57046;45.988;18.664;2024-01-10T03:52:28;102380.31;;;-1.01;74.31
69772;BME280;57046;45.988;18.664;2024-01-10T03:54:54;102390.53;;;-0.98;74.14
69772;BME280;57046;45.988;18.664;2024-01-10T03:57:19;102387.47;;;-0.95;73.92
69772;BME280;57046;45.988;18.664;2024-01-10T03:59:44;102381.31;;;-1.02;73.88
69772;BME280;57046;45.988;18.664;2024-01-10T04:02:10;102390.91;;;-1.01;74.05
69772;BME280;57046;45.988;18.664;2024-01-10T04:04:37;102376.56;;;-1.13;73.72
69772;BME280;57046;45.988;18.664;2024-01-10T04:07:02;102386.56;;;-1.09;73.90
69772;BME280;57046;45.988;18.664;2024-01-10T04:09:28;102387.78;;;-1.11;74.05
69772;BME280;57046;45.988;18.664;2024-01-10T04:11:53;102391.44;;;-1.12;73.81
69772;BME280;57046;45.988;18.664;2024-01-10T04:14:18;102381.44;;;-1.17;73.45
69772;BME280;57046;45.988;18.664;2024-01-10T04:16:44;102390.84;;;-1.14;73.63
69772;BME280;57046;45.988;18.664;2024-01-10T04:19:09;102396.72;;;-1.19;73.24
69772;BME280;57046;45.988;18.664;2024-01-10T04:21:34;102389.97;;;-1.21;73.66
69772;BME280;57046;45.988;18.664;2024-01-10T04:24:00;102393.03;;;-1.24;73.85
69772;BME280;57046;45.988;18.664;2024-01-10T04:26:25;102396.31;;;-1.16;73.83
69772;BME280;57046;45.988;18.664;2024-01-10T04:28:50;102404.91;;;-1.14;73.40
69772;BME280;57046;45.988;18.664;2024-01-10T04:31:15;102394.22;;;-1.27;73.69
69772;BME280;57046;45.988;18.664;2024-01-10T04:33:41;102400.78;;;-1.23;73.93
69772;BME280;57046;45.988;18.664;2024-01-10T04:36:06;102404.41;;;-1.30;73.61
69772;BME280;57046;45.988;18.664;2024-01-10T04:38:32;102412.53;;;-1.32;73.95
69772;BME280;57046;45.988;18.664;2024-01-10T04:40:57;102414.69;;;-1.42;74.10
69772;BME280;57046;45.988;18.664;2024-01-10T04:43:22;102409.22;;;-1.40;74.09
69772;BME280;57046;45.988;18.664;2024-01-10T04:45:48;102423.75;;;-1.36;74.63
69772;BME280;57046;45.988;18.664;2024-01-10T04:48:13;102419.63;;;-1.39;74.71
69772;BME280;57046;45.988;18.664;2024-01-10T04:50:38;102424.03;;;-1.46;75.80
69772;BME280;57046;45.988;18.664;2024-01-10T04:53:03;102425.25;;;-1.48;76.49
69772;BME280;57046;45.988;18.664;2024-01-10T04:55:29;102432.25;;;-1.41;77.29
69772;BME280;57046;45.988;18.664;2024-01-10T04:57:54;102430.53;;;-1.27;77.18
69772;BME280;57046;45.988;18.664;2024-01-10T05:00:19;102444.22;;;-1.24;76.84
69772;BME280;57046;45.988;18.664;2024-01-10T05:02:45;102423.63;;;-1.22;76.94
69772;BME280;57046;45.988;18.664;2024-01-10T05:05:10;102434.47;;;-1.17;76.46
69772;BME280;57046;45.988;18.664;2024-01-10T05:07:35;102437.13;;;-1.17;76.27
69772;BME280;57046;45.988;18.664;2024-01-10T05:10:01;102435.44;;;-1.24;76.55
69772;BME280;57046;45.988;18.664;2024-01-10T05:12:26;102434.22;;;-1.22;76.31
69772;BME280;57046;45.988;18.664;2024-01-10T05:14:51;102443.84;;;-1.21;76.30
69772;BME280;57046;45.988;18.664;2024-01-10T05:17:17;102441.56;;;-1.24;76.53
69772;BME280;57046;45.988;18.664;2024-01-10T05:19:42;102431.31;;;-1.33;76.03
69772;BME280;57046;45.988;18.664;2024-01-10T05:22:07;102431.25;;;-1.40;75.81
69772;BME280;57046;45.988;18.664;2024-01-10T05:24:33;102444.47;;;-1.46;75.46
69772;BME280;57046;45.988;18.664;2024-01-10T05:26:58;102440.53;;;-1.50;75.16
69772;BME280;57046;45.988;18.664;2024-01-10T05:29:23;102448.63;;;-1.59;74.84
69772;BME280;57046;45.988;18.664;2024-01-10T05:31:49;102453.84;;;-1.65;75.00
69772;BME280;57046;45.988;18.664;2024-01-10T05:34:17;102457.81;;;-1.76;74.58
69772;BME280;57046;45.988;18.664;2024-01-10T05:36:43;102442.41;;;-1.87;75.59
69772;BME280;57046;45.988;18.664;2024-01-10T05:39:08;102448.00;;;-1.82;75.23
69772;BME280;57046;45.988;18.664;2024-01-10T05:41:33;102441.88;;;-1.82;75.60
69772;BME280;57046;45.988;18.664;2024-01-10T05:43:58;102461.13;;;-1.74;75.47
69772;BME280;57046;45.988;18.664;2024-01-10T05:46:24;102450.88;;;-1.77;75.34
69772;BME280;57046;45.988;18.664;2024-01-10T05:48:49;102450.69;;;-1.75;74.96
69772;BME280;57046;45.988;18.664;2024-01-10T05:51:15;102438.78;;;-1.86;74.81
69772;BME280;57046;45.988;18.664;2024-01-10T05:53:40;102448.00;;;-1.82;74.79
69772;BME280;57046;45.988;18.664;2024-01-10T05:56:06;102458.31;;;-1.87;74.72
69772;BME280;57046;45.988;18.664;2024-01-10T05:58:31;102456.50;;;-1.86;75.41
69772;BME280;57046;45.988;18.664;2024-01-10T06:00:57;102452.28;;;-1.81;75.97
69772;BME280;57046;45.988;18.664;2024-01-10T06:03:22;102448.38;;;-1.85;76.07
69772;BME280;57046;45.988;18.664;2024-01-10T06:05:47;102451.25;;;-1.80;76.75
69772;BME280;57046;45.988;18.664;2024-01-10T06:08:13;102457.06;;;-1.70;76.82
69772;BME280;57046;45.988;18.664;2024-01-10T06:10:38;102454.19;;;-1.75;76.51
69772;BME280;57046;45.988;18.664;2024-01-10T06:13:03;102459.78;;;-1.63;76.58
69772;BME280;57046;45.988;18.664;2024-01-10T06:15:29;102459.53;;;-1.68;77.20
69772;BME280;57046;45.988;18.664;2024-01-10T06:17:54;102458.34;;;-1.66;77.20
69772;BME280;57046;45.988;18.664;2024-01-10T06:20:19;102464.22;;;-1.70;77.59
69772;BME280;57046;45.988;18.664;2024-01-10T06:22:45;102459.28;;;-1.73;77.98
69772;BME280;57046;45.988;18.664;2024-01-10T06:25:10;102469.13;;;-1.67;78.33
69772;BME280;57046;45.988;18.664;2024-01-10T06:27:35;102465.50;;;-1.60;78.37
69772;BME280;57046;45.988;18.664;2024-01-10T06:30:01;102466.53;;;-1.61;77.95
69772;BME280;57046;45.988;18.664;2024-01-10T06:32:26;102466.94;;;-1.64;77.43
69772;BME280;57046;45.988;18.664;2024-01-10T06:34:51;102470.13;;;-1.68;77.08
69772;BME280;57046;45.988;18.664;2024-01-10T06:37:17;102464.56;;;-1.73;76.70
69772;BME280;57046;45.988;18.664;2024-01-10T06:39:42;102470.31;;;-1.70;76.83
69772;BME280;57046;45.988;18.664;2024-01-10T06:42:07;102467.88;;;-1.71;77.38
69772;BME280;57046;45.988;18.664;2024-01-10T06:44:33;102467.38;;;-1.60;77.28
69772;BME280;57046;45.988;18.664;2024-01-10T06:46:58;102463.13;;;-1.55;77.30
69772;BME280;57046;45.988;18.664;2024-01-10T06:49:23;102472.34;;;-1.50;77.37
69772;BME280;57046;45.988;18.664;2024-01-10T06:51:49;102472.84;;;-1.62;78.08
69772;BME280;57046;45.988;18.664;2024-01-10T06:54:14;102465.91;;;-1.63;78.82
69772;BME280;57046;45.988;18.664;2024-01-10T06:56:39;102472.66;;;-1.60;79.36
69772;BME280;57046;45.988;18.664;2024-01-10T06:59:05;102472.13;;;-1.49;79.41
69772;BME280;57046;45.988;18.664;2024-01-10T07:01:30;102466.91;;;-1.42;78.40
69772;BME280;57046;45.988;18.664;2024-01-10T07:03:55;102466.72;;;-1.41;78.51
69772;BME280;57046;45.988;18.664;2024-01-10T07:06:21;102470.03;;;-1.32;78.38
69772;BME280;57046;45.988;18.664;2024-01-10T07:08:48;102477.94;;;-1.39;78.24
69772;BME280;57046;45.988;18.664;2024-01-10T07:11:14;102465.28;;;-1.43;79.50
69772;BME280;57046;45.988;18.664;2024-01-10T07:13:40;102471.91;;;-1.33;79.38
69772;BME280;57046;45.988;18.664;2024-01-10T07:16:06;102473.44;;;-1.17;78.90
69772;BME280;57046;45.988;18.664;2024-01-10T07:18:32;102472.88;;;-1.13;78.42
69772;BME280;57046;45.988;18.664;2024-01-10T07:20:57;102473.09;;;-1.08;77.92
69772;BME280;57046;45.988;18.664;2024-01-10T07:23:22;102471.88;;;-1.05;77.43
69772;BME280;57046;45.988;18.664;2024-01-10T07:25:49;102471.00;;;-1.12;77.73
69772;BME280;57046;45.988;18.664;2024-01-10T07:28:14;102476.41;;;-1.06;78.05
69772;BME280;57046;45.988;18.664;2024-01-10T07:30:39;102479.28;;;-1.00;77.93
69772;BME280;57046;45.988;18.664;2024-01-10T07:33:05;102475.78;;;-1.01;77.63
69772;BME280;57046;45.988;18.664;2024-01-10T07:35:30;102432.78;;;-1.24;77.28
69772;BME280;57046;45.988;18.664;2024-01-10T07:37:55;102472.53;;;-1.03;77.56
69772;BME280;57046;45.988;18.664;2024-01-10T07:40:21;102472.75;;;-0.98;77.64
69772;BME280;57046;45.988;18.664;2024-01-10T07:42:46;102469.53;;;-0.93;77.50
69772;BME280;57046;45.988;18.664;2024-01-10T07:45:11;102473.63;;;-0.91;77.02
69772;BME280;57046;45.988;18.664;2024-01-10T07:47:37;102467.69;;;-0.93;77.33
69772;BME280;57046;45.988;18.664;2024-01-10T07:50:05;102473.69;;;-0.78;77.43
69772;BME280;57046;45.988;18.664;2024-01-10T07:52:30;102476.41;;;-0.71;77.46
69772;BME280;57046;45.988;18.664;2024-01-10T07:54:56;102476.06;;;-0.62;77.10
69772;BME280;57046;45.988;18.664;2024-01-10T07:57:21;102478.75;;;-0.55;77.55
69772;BME280;57046;45.988;18.664;2024-01-10T07:59:46;102470.03;;;-0.42;77.58
69772;BME280;57046;45.988;18.664;2024-01-10T08:02:12;102474.31;;;-0.41;77.62
69772;BME280;57046;45.988;18.664;2024-01-10T08:04:37;102473.47;;;-0.48;78.44
69772;BME280;57046;45.988;18.664;2024-01-10T08:07:03;102477.56;;;-0.46;79.84
69772;BME280;57046;45.988;18.664;2024-01-10T08:09:28;102477.84;;;-0.34;79.67
69772;BME280;57046;45.988;18.664;2024-01-10T08:11:54;102471.13;;;-0.24;79.48
69772;BME280;57046;45.988;18.664;2024-01-10T08:14:19;102480.72;;;-0.23;80.19
69772;BME280;57046;45.988;18.664;2024-01-10T08:16:44;102492.84;;;-0.14;79.62
69772;BME280;57046;45.988;18.664;2024-01-10T08:19:10;102482.59;;;-0.17;79.47
69772;BME280;57046;45.988;18.664;2024-01-10T08:21:35;102486.31;;;-0.11;79.61
69772;BME280;57046;45.988;18.664;2024-01-10T08:24:02;102479.75;;;-0.09;79.13
69772;BME280;57046;45.988;18.664;2024-01-10T08:26:27;102488.19;;;0.08;77.78
69772;BME280;57046;45.988;18.664;2024-01-10T08:28:54;102467.16;;;0.07;77.62
69772;BME280;57046;45.988;18.664;2024-01-10T08:31:20;102493.16;;;0.31;76.87
69772;BME280;57046;45.988;18.664;2024-01-10T08:33:45;102484.41;;;0.50;75.94
69772;BME280;57046;45.988;18.664;2024-01-10T08:36:11;102484.59;;;0.55;75.72
69772;BME280;57046;45.988;18.664;2024-01-10T08:38:36;102487.88;;;0.50;75.41
69772;BME280;57046;45.988;18.664;2024-01-10T08:41:02;102500.97;;;0.59;75.04
69772;BME280;57046;45.988;18.664;2024-01-10T08:43:27;102502.63;;;0.73;74.77
69772;BME280;57046;45.988;18.664;2024-01-10T08:45:52;102499.13;;;0.85;73.48
69772;BME280;57046;45.988;18.664;2024-01-10T08:48:17;102503.25;;;0.75;73.97
69772;BME280;57046;45.988;18.664;2024-01-10T08:50:43;102496.09;;;1.01;73.10
69772;BME280;57046;45.988;18.664;2024-01-10T08:53:09;102494.81;;;1.17;71.78
69772;BME280;57046;45.988;18.664;2024-01-10T08:55:35;102493.19;;;1.29;71.75
69772;BME280;57046;45.988;18.664;2024-01-10T08:58:00;102500.34;;;1.29;71.42
69772;BME280;57046;45.988;18.664;2024-01-10T09:00:25;102499.72;;;1.27;70.71
69772;BME280;57046;45.988;18.664;2024-01-10T09:02:51;102500.09;;;1.37;69.93
69772;BME280;57046;45.988;18.664;2024-01-10T09:05:16;102500.50;;;1.47;69.32
69772;BME280;57046;45.988;18.664;2024-01-10T09:07:41;102497.63;;;1.48;69.37
69772;BME280;57046;45.988;18.664;2024-01-10T09:10:07;102501.53;;;1.46;69.29
69772;BME280;57046;45.988;18.664;2024-01-10T09:12:33;102504.81;;;1.48;68.20
69772;BME280;57046;45.988;18.664;2024-01-10T09:14:59;102497.66;;;1.35;68.27
69772;BME280;57046;45.988;18.664;2024-01-10T09:17:24;102500.31;;;1.42;68.68
69772;BME280;57046;45.988;18.664;2024-01-10T09:19:49;102497.22;;;1.45;69.00
69772;BME280;57046;45.988;18.664;2024-01-10T09:22:15;102493.28;;;1.61;68.79
69772;BME280;57046;45.988;18.664;2024-01-10T09:24:40;102491.22;;;1.69;68.29
69772;BME280;57046;45.988;18.664;2024-01-10T09:27:05;102490.44;;;1.56;68.90
69772;BME280;57046;45.988;18.664;2024-01-10T09:29:31;102501.09;;;1.62;68.65
69772;BME280;57046;45.988;18.664;2024-01-10T09:31:56;102497.16;;;1.71;68.48
69772;BME280;57046;45.988;18.664;2024-01-10T09:34:21;102492.03;;;1.76;68.65
69772;BME280;57046;45.988;18.664;2024-01-10T09:36:47;102502.00;;;1.87;68.44
69772;BME280;57046;45.988;18.664;2024-01-10T09:39:12;102500.56;;;1.85;67.76
69772;BME280;57046;45.988;18.664;2024-01-10T09:41:40;102509.81;;;1.82;68.25
69772;BME280;57046;45.988;18.664;2024-01-10T09:44:10;102503.81;;;2.00;67.23
69772;BME280;57046;45.988;18.664;2024-01-10T09:46:38;102503.56;;;2.01;66.80
69772;BME280;57046;45.988;18.664;2024-01-10T09:49:06;102496.28;;;1.84;67.41
69772;BME280;57046;45.988;18.664;2024-01-10T09:51:33;102462.78;;;1.50;68.43
69772;BME280;57046;45.988;18.664;2024-01-10T09:54:00;102486.69;;;1.76;68.83
69772;BME280;57046;45.988;18.664;2024-01-10T09:56:27;102486.28;;;1.73;68.84
69772;BME280;57046;45.988;18.664;2024-01-10T09:58:53;102489.31;;;1.83;67.89
69772;BME280;57046;45.988;18.664;2024-01-10T10:01:20;102454.44;;;1.84;67.50
69772;BME280;57046;45.988;18.664;2024-01-10T10:03:49;102492.69;;;2.10;66.71
69772;BME280;57046;45.988;18.664;2024-01-10T10:06:15;102487.47;;;2.21;66.99
69772;BME280;57046;45.988;18.664;2024-01-10T10:08:40;102480.09;;;2.23;66.83
69772;BME280;57046;45.988;18.664;2024-01-10T10:11:05;102484.22;;;2.19;66.70
69772;BME280;57046;45.988;18.664;2024-01-10T10:13:31;102484.44;;;2.18;66.11
69772;BME280;57046;45.988;18.664;2024-01-10T10:16:00;102455.34;;;2.10;65.95
69772;BME280;57046;45.988;18.664;2024-01-10T10:18:27;102479.53;;;2.46;65.34
69772;BME280;57046;45.988;18.664;2024-01-10T10:21:11;102480.94;;;2.48;64.05
69772;BME280;57046;45.988;18.664;2024-01-10T10:23:42;102476.16;;;2.57;63.51
69772;BME280;57046;45.988;18.664;2024-01-10T10:28:36;102469.59;;;2.28;64.27
69772;BME280;57046;45.988;18.664;2024-01-10T10:31:01;102460.94;;;2.33;65.35
69772;BME280;57046;45.988;18.664;2024-01-10T10:33:27;102466.53;;;2.56;64.60
69772;BME280;57046;45.988;18.664;2024-01-10T10:35:53;102467.28;;;2.63;64.54
69772;BME280;57046;45.988;18.664;2024-01-10T10:38:21;102476.34;;;2.87;64.67
69772;BME280;57046;45.988;18.664;2024-01-10T10:40:47;102467.88;;;2.90;63.70
69772;BME280;57046;45.988;18.664;2024-01-10T10:43:13;102465.66;;;2.87;63.74
69772;BME280;57046;45.988;18.664;2024-01-10T10:45:39;102444.75;;;2.84;64.50
69772;BME280;57046;45.988;18.664;2024-01-10T10:48:08;102440.81;;;2.86;63.22
69772;BME280;57046;45.988;18.664;2024-01-10T10:50:35;102468.06;;;3.13;62.21
69772;BME280;57046;45.988;18.664;2024-01-10T10:53:02;102464.16;;;3.16;62.28
69772;BME280;57046;45.988;18.664;2024-01-10T10:55:29;102446.78;;;3.06;62.13
69772;BME280;57046;45.988;18.664;2024-01-10T10:57:55;102455.22;;;3.03;63.11
69772;BME280;57046;45.988;18.664;2024-01-10T11:00:22;102459.34;;;3.06;63.27
69772;BME280;57046;45.988;18.664;2024-01-10T11:02:47;102456.16;;;3.16;63.36
69772;BME280;57046;45.988;18.664;2024-01-10T11:05:13;102442.78;;;3.16;62.12
69772;BME280;57046;45.988;18.664;2024-01-10T11:07:43;102428.84;;;3.14;62.63
69772;BME280;57046;45.988;18.664;2024-01-10T11:10:13;102456.84;;;3.29;62.70
69772;BME280;57046;45.988;18.664;2024-01-10T11:24:33;102426.97;;;3.50;60.82
69772;BME280;57046;45.988;18.664;2024-01-10T11:27:07;102410.06;;;3.56;60.42
69772;BME280;57046;45.988;18.664;2024-01-10T11:29:32;102412.28;;;3.59;59.37
69772;BME280;57046;45.988;18.664;2024-01-10T11:31:58;102407.94;;;3.29;61.14
69772;BME280;57046;45.988;18.664;2024-01-10T11:34:24;102406.28;;;3.46;60.61
69772;BME280;57046;45.988;18.664;2024-01-10T11:37:09;102407.31;;;3.63;59.97
69772;BME280;57046;45.988;18.664;2024-01-10T11:39:35;102411.75;;;3.69;60.88
69772;BME280;57046;45.988;18.664;2024-01-10T11:42:00;102406.19;;;3.71;59.17
69772;BME280;57046;45.988;18.664;2024-01-10T11:44:26;102407.59;;;3.73;59.53
69772;BME280;57046;45.988;18.664;2024-01-10T11:46:53;102382.53;;;3.38;59.89
69772;BME280;57046;45.988;18.664;2024-01-10T11:49:20;102418.28;;;3.55;60.11
69772;BME280;57046;45.988;18.664;2024-01-10T11:51:46;102412.91;;;3.25;60.13
69772;BME280;57046;45.988;18.664;2024-01-10T11:54:39;102402.28;;;3.19;60.42
69772;BME280;57046;45.988;18.664;2024-01-10T11:57:26;102403.78;;;3.33;59.80
69772;BME280;57046;45.988;18.664;2024-01-10T11:59:53;102397.06;;;3.60;60.08
69772;BME280;57046;45.988;18.664;2024-01-10T12:02:20;102397.66;;;3.62;60.11
69772;BME280;57046;45.988;18.664;2024-01-10T12:04:46;102393.09;;;3.81;60.02
69772;BME280;57046;45.988;18.664;2024-01-10T12:07:12;102390.69;;;4.02;58.66
69772;BME280;57046;45.988;18.664;2024-01-10T12:09:38;102390.94;;;3.71;58.63
69772;BME280;57046;45.988;18.664;2024-01-10T12:12:04;102383.88;;;3.77;58.70
69772;BME280;57046;45.988;18.664;2024-01-10T12:14:30;102379.38;;;3.59;60.24
69772;BME280;57046;45.988;18.664;2024-01-10T12:16:59;102379.22;;;3.72;60.27
69772;BME280;57046;45.988;18.664;2024-01-10T12:19:25;102374.47;;;3.74;59.52
69772;BME280;57046;45.988;18.664;2024-01-10T12:21:50;102367.50;;;3.55;60.13
69772;BME280;57046;45.988;18.664;2024-01-10T12:24:16;102377.44;;;3.36;60.81
69772;BME280;57046;45.988;18.664;2024-01-10T12:26:44;102372.66;;;3.38;61.02
69772;BME280;57046;45.988;18.664;2024-01-10T12:29:11;102367.50;;;3.55;60.42
69772;BME280;57046;45.988;18.664;2024-01-10T12:31:37;102363.63;;;3.39;60.17
69772;BME280;57046;45.988;18.664;2024-01-10T12:34:02;102370.19;;;3.37;62.12
69772;BME280;57046;45.988;18.664;2024-01-10T12:36:27;102363.16;;;3.61;61.12
69772;BME280;57046;45.988;18.664;2024-01-10T12:38:53;102350.44;;;3.56;60.95
69772;BME280;57046;45.988;18.664;2024-01-10T12:41:19;102360.44;;;3.90;60.25
69772;BME280;57046;45.988;18.664;2024-01-10T12:43:52;102355.88;;;4.21;60.40
69772;BME280;57046;45.988;18.664;2024-01-10T12:46:17;102353.44;;;4.54;57.98
69772;BME280;57046;45.988;18.664;2024-01-10T12:48:43;102357.03;;;4.36;57.46
69772;BME280;57046;45.988;18.664;2024-01-10T12:51:12;102350.53;;;4.44;57.88
69772;BME280;57046;45.988;18.664;2024-01-10T12:53:41;102346.31;;;4.36;57.59